createdAt,value
2018-12-24T00:00:40.462Z,83.48
2018-12-24T00:02:10.695Z,83.62
2018-12-24T00:03:41.016Z,83.29
2018-12-24T00:05:11.070Z,83.26
2018-12-24T00:06:41.119Z,83.20
2018-12-24T00:08:11.304Z,83.06
2018-12-24T00:09:41.273Z,83.17
2018-12-24T00:11:11.425Z,83.39
2018-12-24T00:12:41.627Z,82.89
2018-12-24T00:14:11.782Z,82.84
2018-12-24T00:15:41.954Z,82.90
2018-12-24T00:17:12.175Z,83.26
2018-12-24T00:18:42.249Z,83.18
2018-12-24T00:20:12.290Z,84.06
2018-12-24T00:21:42.246Z,84.70
2018-12-24T00:23:12.229Z,85.63
2018-12-24T00:24:42.183Z,82.93
2018-12-24T00:26:12.161Z,85.75
2018-12-24T00:27:42.227Z,85.70
2018-12-24T00:29:12.306Z,86.83
2018-12-24T00:30:42.639Z,87.41
2018-12-24T00:32:12.822Z,89.72
2018-12-24T00:33:42.892Z,89.65
2018-12-24T00:35:12.983Z,89.65
2018-12-24T00:36:43.397Z,90.01
2018-12-24T00:38:13.614Z,88.61
2018-12-24T00:39:43.575Z,88.56
2018-12-24T00:41:13.911Z,89.82
2018-12-24T00:42:44.249Z,88.47
2018-12-24T00:44:14.422Z,89.79
2018-12-24T00:45:44.634Z,89.30
2018-12-24T00:47:14.942Z,89.73
2018-12-24T00:48:45.133Z,90.68
2018-12-24T00:50:15.321Z,90.52
2018-12-24T00:51:45.416Z,90.92
2018-12-24T00:53:15.403Z,90.09
2018-12-24T00:54:45.550Z,90.56
2018-12-24T00:56:15.623Z,90.60
2018-12-24T00:57:45.935Z,90.30
2018-12-24T00:59:16.096Z,90.25
2018-12-24T01:00:46.253Z,89.87
2018-12-24T01:02:16.427Z,90.60
2018-12-24T01:03:46.612Z,90.36
2018-12-24T01:05:16.767Z,90.40
2018-12-24T01:06:46.835Z,90.34
2018-12-24T01:08:17.025Z,90.73
2018-12-24T01:09:47.421Z,91.05
2018-12-24T01:11:17.578Z,90.34
2018-12-24T01:12:48.003Z,90.03
2018-12-24T01:14:18.090Z,88.02
2018-12-24T01:15:48.043Z,89.04
2018-12-24T01:17:18.213Z,89.16
2018-12-24T01:18:48.189Z,88.93
2018-12-24T01:20:18.362Z,88.80
2018-12-24T01:21:48.536Z,87.77
2018-12-24T01:23:18.964Z,87.90
2018-12-24T01:24:49.419Z,87.80
2018-12-24T01:26:19.742Z,88.13
2018-12-24T01:27:50.101Z,89.46
2018-12-24T01:29:20.421Z,89.69
2018-12-24T01:30:50.581Z,89.65
2018-12-24T01:32:20.987Z,88.75
2018-12-24T01:33:51.560Z,88.14
2018-12-24T01:35:21.728Z,88.44
2018-12-24T01:36:51.897Z,89.57
2018-12-24T01:38:22.080Z,89.17
2018-12-24T01:39:52.145Z,89.62
2018-12-24T01:41:22.592Z,88.20
2018-12-24T01:42:52.642Z,88.71
2018-12-24T01:44:23.283Z,89.46
2018-12-24T01:45:53.439Z,88.81
2018-12-24T01:47:23.627Z,89.54
2018-12-24T01:48:53.812Z,89.42
2018-12-24T01:50:24.222Z,89.62
2018-12-24T01:51:54.406Z,89.87
2018-12-24T01:53:24.812Z,90.02
2018-12-24T01:54:55.008Z,89.78
2018-12-24T01:56:24.960Z,88.03
2018-12-24T01:57:55.370Z,87.64
2018-12-24T01:59:25.553Z,88.00
2018-12-24T02:00:55.967Z,89.34
2018-12-24T02:02:26.157Z,87.23
2018-12-24T02:03:56.328Z,87.54
2018-12-24T02:05:26.744Z,88.37
2018-12-24T02:06:56.819Z,87.96
2018-12-24T02:08:27.015Z,88.37
2018-12-24T02:09:57.188Z,87.51
2018-12-24T02:11:27.353Z,87.90
2018-12-24T02:12:57.512Z,87.45
2018-12-24T02:14:27.929Z,87.66
2018-12-24T02:15:58.075Z,87.29
2018-12-24T02:17:28.237Z,87.74
2018-12-24T02:18:58.430Z,87.59
2018-12-24T02:20:28.593Z,87.43
2018-12-24T02:21:58.759Z,88.25
2018-12-24T02:23:29.232Z,88.55
2018-12-24T02:24:59.420Z,87.82
2018-12-24T02:26:29.598Z,88.62
2018-12-24T02:28:00.018Z,88.54
2018-12-24T02:29:30.226Z,87.83
2018-12-24T02:31:00.432Z,87.63
2018-12-24T02:32:30.835Z,88.81
2018-12-24T02:34:01.282Z,88.59
2018-12-24T02:35:31.730Z,88.37
2018-12-24T02:37:01.932Z,87.66
2018-12-24T02:38:32.528Z,88.21
2018-12-24T02:40:03.252Z,88.23
2018-12-24T02:41:33.417Z,88.27
2018-12-24T02:43:03.808Z,88.83
2018-12-24T02:44:34.259Z,88.00
2018-12-24T02:46:04.696Z,88.44
2018-12-24T02:47:34.854Z,88.13
2018-12-24T02:49:05.028Z,88.10
2018-12-24T02:50:35.358Z,88.31
2018-12-24T02:52:05.980Z,88.05
2018-12-24T02:53:36.540Z,87.40
2018-12-24T02:55:06.744Z,88.17
2018-12-24T02:56:37.064Z,87.24
2018-12-24T02:58:07.257Z,87.99
2018-12-24T02:59:37.573Z,87.65
2018-12-24T03:01:08.011Z,87.87
2018-12-24T03:02:38.199Z,87.51
2018-12-24T03:04:08.372Z,87.87
2018-12-24T03:05:38.595Z,87.19
2018-12-24T03:07:08.733Z,87.75
2018-12-24T03:08:39.145Z,86.60
2018-12-24T03:10:09.333Z,87.74
2018-12-24T03:11:39.513Z,86.79
2018-12-24T03:13:09.927Z,86.55
2018-12-24T03:14:40.112Z,87.35
2018-12-24T03:16:10.290Z,86.84
2018-12-24T03:17:40.467Z,87.63
2018-12-24T03:19:10.909Z,87.40
2018-12-24T03:20:41.092Z,86.34
2018-12-24T03:22:11.254Z,86.48
2018-12-24T03:23:41.440Z,87.07
2018-12-24T03:25:11.622Z,86.95
2018-12-24T03:26:42.040Z,87.15
2018-12-24T03:28:12.632Z,87.05
2018-12-24T03:29:42.814Z,85.65
2018-12-24T03:31:12.998Z,86.04
2018-12-24T03:32:43.186Z,86.38
2018-12-24T03:34:13.601Z,86.82
2018-12-24T03:35:43.789Z,86.53
2018-12-24T03:37:14.252Z,84.58
2018-12-24T03:38:44.334Z,85.74
2018-12-24T03:40:14.766Z,86.15
2018-12-24T03:41:44.947Z,85.29
2018-12-24T03:43:15.380Z,85.04
2018-12-24T03:44:45.576Z,86.01
2018-12-24T03:46:15.753Z,85.69
2018-12-24T03:47:46.296Z,84.47
2018-12-24T03:49:18.087Z,85.83
2018-12-24T03:50:48.513Z,85.31
2018-12-24T03:52:18.945Z,85.96
2018-12-24T03:53:49.286Z,86.11
2018-12-24T03:55:19.484Z,86.00
2018-12-24T03:56:49.736Z,85.27
2018-12-24T03:58:20.167Z,85.55
2018-12-24T03:59:50.352Z,86.45
2018-12-24T04:01:20.532Z,86.88
2018-12-24T04:02:50.937Z,85.89
2018-12-24T04:04:21.104Z,86.29
2018-12-24T04:05:51.408Z,86.28
2018-12-24T04:07:21.576Z,84.70
2018-12-24T04:08:52.009Z,86.10
2018-12-24T04:10:22.093Z,86.22
2018-12-24T04:11:52.325Z,86.35
2018-12-24T04:13:22.976Z,85.22
2018-12-24T04:14:53.291Z,84.55
2018-12-24T04:16:23.729Z,85.78
2018-12-24T04:17:54.074Z,86.12
2018-12-24T04:19:24.755Z,84.72
2018-12-24T04:20:55.187Z,84.84
2018-12-24T04:22:25.625Z,84.41
2018-12-24T04:23:55.830Z,84.60
2018-12-24T04:25:26.010Z,84.68
2018-12-24T04:26:56.191Z,85.76
2018-12-24T04:28:26.619Z,85.71
2018-12-24T04:29:57.115Z,85.52
2018-12-24T04:31:27.322Z,85.69
2018-12-24T04:32:57.652Z,85.66
2018-12-24T04:34:28.363Z,84.95
2018-12-24T04:35:58.549Z,83.86
2018-12-24T04:37:28.720Z,84.44
2018-12-24T04:38:58.890Z,84.58
2018-12-24T04:40:29.075Z,85.16
2018-12-24T04:41:59.761Z,85.21
2018-12-24T04:43:32.414Z,84.90
2018-12-24T04:45:02.231Z,84.84
2018-12-24T04:46:32.451Z,85.46
2018-12-24T04:48:02.631Z,84.75
2018-12-24T04:49:32.823Z,84.29
2018-12-24T04:51:03.002Z,84.35
2018-12-24T04:52:33.208Z,84.35
2018-12-24T04:54:03.368Z,84.91
2018-12-24T04:55:33.776Z,84.91
2018-12-24T04:57:03.957Z,84.77
2018-12-24T04:58:34.121Z,84.98
2018-12-24T05:00:04.709Z,84.42
2018-12-24T05:01:34.798Z,84.13
2018-12-24T05:03:05.150Z,83.77
2018-12-24T05:04:35.337Z,84.23
2018-12-24T05:06:05.778Z,83.39
2018-12-24T05:07:35.953Z,83.97
2018-12-24T05:09:06.531Z,84.18
2018-12-24T05:10:36.860Z,83.84
2018-12-24T05:12:07.005Z,84.38
2018-12-24T05:13:40.978Z,84.60
2018-12-24T05:15:09.380Z,84.96
2018-12-24T05:16:39.985Z,83.94
2018-12-24T05:18:10.400Z,82.89
2018-12-24T05:19:40.973Z,83.56
2018-12-24T05:21:11.370Z,84.09
2018-12-24T05:22:41.525Z,84.19
2018-12-24T05:24:11.703Z,84.73
2018-12-24T05:25:41.875Z,84.17
2018-12-24T05:27:12.635Z,83.00
2018-12-24T05:28:42.830Z,83.41
2018-12-24T05:30:13.098Z,83.71
2018-12-24T05:31:43.556Z,83.91
2018-12-24T05:33:13.723Z,84.08
2018-12-24T05:34:44.151Z,84.14
2018-12-24T05:36:14.576Z,83.67
2018-12-24T05:37:44.746Z,83.68
2018-12-24T05:39:14.956Z,84.25
2018-12-24T05:40:45.366Z,84.74
2018-12-24T05:42:15.548Z,85.08
2018-12-24T05:43:49.499Z,84.77
2018-12-24T05:45:17.995Z,84.35
2018-12-24T05:46:48.185Z,83.16
2018-12-24T05:48:18.349Z,83.87
2018-12-24T05:49:48.522Z,84.04
2018-12-24T05:51:18.727Z,83.34
2018-12-24T05:52:49.218Z,83.39
2018-12-24T05:54:19.390Z,83.10
2018-12-24T05:55:49.577Z,84.08
2018-12-24T05:57:19.820Z,84.03
2018-12-24T05:58:50.265Z,83.55
2018-12-24T06:00:20.692Z,83.73
2018-12-24T06:01:50.770Z,83.37
2018-12-24T06:03:21.199Z,83.52
2018-12-24T06:04:51.520Z,83.90
2018-12-24T06:06:21.822Z,84.15
2018-12-24T06:07:52.533Z,84.44
2018-12-24T06:09:22.731Z,83.07
2018-12-24T06:11:29.856Z,83.30
2018-12-24T06:13:00.094Z,83.98
2018-12-24T06:14:30.254Z,84.21
2018-12-24T06:16:00.406Z,84.45
2018-12-24T06:17:30.837Z,84.19
2018-12-24T06:19:01.024Z,84.15
2018-12-24T06:20:37.615Z,84.03
2018-12-24T06:22:03.690Z,83.84
2018-12-24T06:23:33.648Z,84.25
2018-12-24T06:25:03.994Z,83.87
2018-12-24T06:26:34.185Z,84.41
2018-12-24T06:30:51.000Z,84.37
2018-12-24T06:32:21.324Z,83.93
2018-12-24T06:33:51.725Z,82.75
2018-12-24T06:35:21.887Z,83.11
2018-12-24T06:36:51.972Z,82.73
2018-12-24T06:38:22.160Z,83.00
2018-12-24T06:39:52.356Z,82.29
2018-12-24T06:41:22.521Z,82.36
2018-12-24T06:42:52.901Z,82.57
2018-12-24T06:44:23.592Z,82.69
2018-12-24T06:45:53.772Z,82.15
2018-12-24T06:47:23.960Z,82.64
2018-12-24T06:48:54.308Z,82.70
2018-12-24T06:50:24.264Z,82.14
2018-12-24T06:51:54.452Z,82.36
2018-12-24T06:53:24.645Z,82.61
2018-12-24T06:54:54.818Z,82.05
2018-12-24T06:56:25.225Z,81.54
2018-12-24T06:57:55.405Z,82.57
2018-12-24T06:59:25.762Z,82.89
2018-12-24T07:00:55.918Z,82.81
2018-12-24T07:02:26.147Z,82.51
2018-12-24T07:04:11.521Z,83.23
2018-12-24T07:05:41.701Z,83.38
2018-12-24T07:07:12.200Z,83.25
2018-12-24T07:08:42.387Z,82.91
2018-12-24T07:10:12.785Z,81.75
2018-12-24T07:11:43.201Z,82.16
2018-12-24T07:13:13.630Z,82.83
2018-12-24T07:14:43.810Z,82.25
2018-12-24T07:16:14.216Z,81.73
2018-12-24T07:17:44.677Z,81.79
2018-12-24T07:19:14.735Z,80.89
2018-12-24T07:20:45.297Z,80.79
2018-12-24T07:22:15.614Z,81.45
2018-12-24T07:23:45.780Z,82.06
2018-12-24T07:25:15.949Z,81.84
2018-12-24T07:26:58.529Z,81.46
2018-12-24T07:28:28.838Z,79.70
2018-12-24T07:29:59.005Z,80.58
2018-12-24T07:31:29.411Z,80.57
2018-12-24T07:32:59.597Z,80.19
2018-12-24T07:34:32.662Z,79.83
2018-12-24T07:36:01.841Z,79.60
2018-12-24T07:37:32.265Z,79.40
2018-12-24T07:39:17.521Z,78.78
2018-12-24T07:40:47.719Z,78.51
2018-12-24T07:42:17.948Z,79.62
2018-12-24T07:43:47.986Z,80.05
2018-12-24T07:45:18.385Z,78.75
2018-12-24T07:46:48.723Z,79.24
2018-12-24T07:48:18.889Z,79.88
2018-12-24T07:49:49.294Z,80.52
2018-12-24T07:51:19.489Z,80.52
2018-12-24T07:52:50.076Z,79.16
2018-12-24T07:54:20.255Z,79.66
2018-12-24T07:55:50.657Z,80.15
2018-12-24T07:57:21.097Z,81.36
2018-12-24T07:58:51.328Z,80.77
2018-12-24T08:00:21.749Z,80.31
2018-12-24T08:01:52.175Z,80.61
2018-12-24T08:03:41.952Z,80.29
2018-12-24T08:05:12.113Z,80.47
2018-12-24T08:06:42.281Z,79.88
2018-12-24T08:08:12.745Z,80.31
2018-12-24T08:09:43.426Z,80.10
2018-12-24T08:11:13.589Z,80.71
2018-12-24T08:12:43.771Z,80.60
2018-12-24T08:14:13.999Z,80.22
2018-12-24T08:15:44.235Z,79.72
2018-12-24T08:17:14.438Z,79.26
2018-12-24T08:18:44.897Z,79.65
2018-12-24T08:20:15.130Z,80.17
2018-12-24T08:21:45.370Z,79.90
2018-12-24T08:23:15.681Z,80.47
2018-12-24T08:24:45.832Z,80.95
2018-12-24T08:26:18.673Z,80.16
2018-12-24T08:27:48.844Z,80.03
2018-12-24T08:29:19.550Z,80.05
2018-12-24T08:30:50.058Z,80.65
2018-12-24T08:32:54.127Z,80.99
2018-12-24T08:34:24.904Z,80.73
2018-12-24T08:35:55.021Z,80.51
2018-12-24T08:37:25.323Z,80.26
2018-12-24T08:38:55.543Z,79.70
2018-12-24T08:40:25.737Z,79.79
2018-12-24T08:41:55.921Z,79.82
2018-12-24T08:43:25.992Z,79.62
2018-12-24T08:44:56.245Z,79.00
2018-12-24T08:46:26.367Z,77.98
2018-12-24T08:47:56.540Z,78.39
2018-12-24T08:49:26.991Z,77.57
2018-12-24T08:50:57.452Z,76.78
2018-12-24T08:52:27.678Z,76.64
2018-12-24T08:53:57.888Z,77.55
2018-12-24T08:55:28.059Z,76.87
2018-12-24T08:57:04.214Z,77.01
2018-12-24T08:58:34.590Z,76.50
2018-12-24T09:00:04.818Z,77.29
2018-12-24T09:01:35.375Z,76.41
2018-12-24T09:03:05.530Z,76.06
2018-12-24T09:04:35.751Z,76.58
2018-12-24T09:06:05.954Z,75.80
2018-12-24T09:07:36.553Z,75.83
2018-12-24T09:09:07.040Z,74.92
2018-12-24T09:10:37.277Z,75.71
2018-12-24T09:12:19.511Z,76.16
2018-12-24T09:13:49.949Z,77.09
2018-12-24T09:15:20.146Z,76.36
2018-12-24T09:16:50.676Z,75.67
2018-12-24T09:18:20.989Z,76.31
2018-12-24T09:19:51.168Z,76.47
2018-12-24T09:21:21.370Z,76.89
2018-12-24T09:22:51.821Z,77.28
2018-12-24T09:24:22.048Z,76.48
2018-12-24T09:25:52.285Z,75.80
2018-12-24T09:27:22.787Z,76.46
2018-12-24T09:28:53.102Z,76.25
2018-12-24T09:30:23.554Z,76.94
2018-12-24T09:31:53.783Z,76.75
2018-12-24T09:33:24.366Z,76.39
2018-12-24T09:34:54.709Z,76.36
2018-12-24T09:36:52.275Z,74.70
2018-12-24T09:38:22.423Z,75.30
2018-12-24T09:39:55.198Z,75.64
2018-12-24T09:41:25.421Z,74.41
2018-12-24T09:42:55.626Z,74.83
2018-12-24T09:44:26.113Z,75.61
2018-12-24T09:45:56.325Z,75.12
2018-12-24T09:47:26.501Z,74.83
2018-12-24T09:48:56.717Z,73.73
2018-12-24T09:50:27.185Z,74.34
2018-12-24T09:51:57.440Z,73.21
2018-12-24T09:58:31.259Z,72.84
2018-12-24T10:00:01.458Z,74.19
2018-12-24T10:01:51.053Z,75.06
2018-12-24T10:03:34.680Z,74.39
2018-12-24T10:05:05.208Z,73.42
2018-12-24T10:07:33.273Z,74.01
2018-12-24T10:09:08.442Z,74.34
2018-12-24T10:10:38.409Z,72.57
2018-12-24T10:12:08.505Z,72.29
2018-12-24T10:15:08.213Z,70.01
2018-12-24T10:16:38.458Z,69.98
2018-12-24T10:18:08.862Z,67.91
2018-12-24T10:19:38.951Z,66.46
2018-12-24T10:21:08.924Z,68.62
2018-12-24T10:22:39.030Z,68.50
2018-12-24T10:24:09.178Z,67.09
2018-12-24T10:25:39.424Z,67.28
2018-12-24T10:27:09.649Z,68.47
2018-12-24T10:28:39.878Z,68.66
2018-12-24T10:30:10.325Z,67.23
2018-12-24T10:31:40.443Z,68.73
2018-12-24T10:33:10.695Z,69.02
2018-12-24T10:34:40.944Z,68.67
2018-12-24T10:36:11.326Z,66.78
2018-12-24T10:37:41.594Z,66.78
2018-12-24T10:39:11.744Z,67.04
2018-12-24T10:40:53.142Z,65.70
2018-12-24T10:42:23.808Z,65.30
2018-12-24T10:43:54.274Z,65.47
2018-12-24T10:45:27.451Z,65.77
2018-12-24T10:46:58.513Z,64.87
2018-12-24T10:48:29.123Z,65.94
2018-12-24T10:49:59.893Z,65.79
2018-12-24T10:52:28.387Z,65.64
2018-12-24T10:53:58.320Z,65.32
2018-12-24T10:55:28.236Z,65.09
2018-12-24T10:57:13.330Z,65.59
2018-12-24T10:58:43.411Z,66.12
2018-12-24T11:00:12.983Z,67.17
2018-12-24T11:01:44.676Z,66.00
2018-12-24T11:03:14.726Z,66.19
2018-12-24T11:04:45.444Z,68.70
2018-12-24T11:06:15.322Z,66.18
2018-12-24T11:07:45.193Z,65.80
2018-12-24T11:09:15.472Z,65.80
2018-12-24T11:10:46.738Z,66.93
2018-12-24T11:12:16.841Z,65.65
2018-12-24T11:13:46.894Z,66.60
2018-12-24T11:15:21.327Z,66.69
2018-12-24T11:16:48.551Z,65.96
2018-12-24T11:18:18.417Z,63.46
2018-12-24T11:19:48.858Z,64.28
2018-12-24T11:21:18.859Z,61.81
2018-12-24T11:22:48.649Z,61.58
2018-12-24T11:24:18.621Z,60.95
2018-12-24T11:25:48.571Z,61.28
2018-12-24T11:27:19.484Z,60.86
2018-12-24T11:28:49.465Z,60.55
2018-12-24T11:30:19.647Z,62.12
2018-12-24T11:31:49.454Z,62.98
2018-12-24T11:33:22.242Z,62.18
2018-12-24T11:34:52.164Z,62.34
2018-12-24T11:36:22.019Z,63.60
2018-12-24T11:37:51.631Z,64.38
2018-12-24T11:39:21.452Z,66.02
2018-12-24T11:40:51.937Z,66.15
2018-12-24T11:42:21.737Z,66.68
2018-12-24T11:43:51.569Z,67.13
2018-12-24T11:45:21.456Z,68.03
2018-12-24T11:46:54.100Z,68.92
2018-12-24T11:48:24.548Z,69.12
2018-12-24T11:49:54.194Z,68.43
2018-12-24T11:51:24.113Z,67.57
2018-12-24T11:52:53.638Z,68.17
2018-12-24T11:54:26.237Z,67.45
2018-12-24T11:55:56.290Z,69.64
2018-12-24T11:57:26.014Z,69.31
2018-12-24T11:58:55.881Z,67.76
2018-12-24T12:00:25.838Z,68.64
2018-12-24T12:01:55.847Z,68.18
2018-12-24T12:03:25.545Z,68.45
2018-12-24T12:04:55.229Z,68.67
2018-12-24T12:06:25.241Z,69.04
2018-12-24T12:07:55.037Z,67.78
2018-12-24T12:09:24.883Z,67.09
2018-12-24T12:10:55.432Z,66.36
2018-12-24T12:12:26.487Z,66.52
2018-12-24T12:13:56.293Z,68.60
2018-12-24T12:15:26.128Z,68.52
2018-12-24T12:16:55.759Z,68.30
2018-12-24T12:18:25.501Z,68.11
2018-12-24T12:19:55.149Z,68.93
2018-12-24T12:21:24.983Z,67.58
2018-12-24T12:22:54.789Z,68.80
2018-12-24T12:24:24.346Z,68.00
2018-12-24T12:25:54.081Z,69.12
2018-12-24T12:27:23.750Z,69.93
2018-12-24T12:28:53.417Z,69.69
2018-12-24T12:30:23.059Z,68.54
2018-12-24T12:31:52.667Z,70.47
2018-12-24T12:33:22.361Z,68.25
2018-12-24T12:34:52.059Z,68.37
2018-12-24T12:36:21.730Z,70.07
2018-12-24T12:37:51.351Z,69.11
2018-12-24T12:39:20.986Z,69.23
2018-12-24T12:40:50.628Z,69.21
2018-12-24T12:42:20.147Z,69.78
2018-12-24T12:43:49.681Z,70.58
2018-12-24T12:45:19.268Z,70.12
2018-12-24T12:46:48.877Z,69.98
2018-12-24T12:48:18.403Z,69.47
2018-12-24T12:49:47.964Z,68.57
2018-12-24T12:51:17.633Z,68.78
2018-12-24T12:52:47.252Z,68.88
2018-12-24T12:54:17.004Z,68.01
2018-12-24T12:55:46.537Z,68.79
2018-12-24T12:57:16.300Z,68.70
2018-12-24T12:58:45.975Z,67.40
2018-12-24T13:00:15.584Z,66.88
2018-12-24T13:01:45.247Z,67.78
2018-12-24T13:03:15.476Z,66.73
2018-12-24T13:04:45.397Z,66.72
2018-12-24T13:06:15.231Z,66.81
2018-12-24T13:07:44.859Z,65.51
2018-12-24T13:09:14.555Z,64.67
2018-12-24T13:10:45.393Z,64.96
2018-12-24T13:12:15.195Z,64.93
2018-12-24T13:13:44.961Z,65.93
2018-12-24T13:15:14.690Z,63.60
2018-12-24T13:16:44.476Z,62.95
2018-12-24T13:18:14.378Z,63.75
2018-12-24T13:19:44.097Z,62.95
2018-12-24T13:21:13.694Z,63.64
2018-12-24T13:22:43.425Z,63.89
2018-12-24T13:24:13.070Z,63.90
2018-12-24T13:25:42.745Z,63.77
2018-12-24T13:27:12.559Z,63.76
2018-12-24T13:28:42.699Z,63.88
2018-12-24T13:30:12.352Z,62.70
2018-12-24T13:37:42.346Z,61.95
2018-12-24T13:39:12.096Z,62.29
2018-12-24T13:40:41.747Z,64.10
2018-12-24T13:42:11.890Z,64.32
2018-12-24T13:43:41.443Z,64.70
2018-12-24T13:45:11.179Z,64.19
2018-12-24T13:46:40.802Z,64.33
2018-12-24T13:48:10.658Z,63.81
2018-12-24T13:49:40.436Z,64.45
2018-12-24T13:51:12.210Z,65.66
2018-12-24T13:52:42.027Z,64.80
2018-12-24T13:54:11.746Z,64.88
2018-12-24T13:55:41.834Z,64.12
2018-12-24T13:57:11.716Z,64.82
2018-12-24T13:58:41.599Z,64.42
2018-12-24T14:00:11.336Z,64.35
2018-12-24T14:04:12.832Z,64.90
2018-12-24T14:05:42.640Z,63.59
2018-12-24T14:07:12.177Z,65.69
2018-12-24T14:08:42.236Z,65.79
2018-12-24T14:10:12.255Z,63.63
2018-12-24T14:11:41.835Z,65.26
2018-12-24T14:13:11.492Z,64.61
2018-12-24T14:14:41.288Z,65.46
2018-12-24T14:16:16.725Z,64.90
2018-12-24T14:17:43.301Z,66.05
2018-12-24T14:19:13.392Z,65.15
2018-12-24T14:20:43.450Z,67.10
2018-12-24T14:22:13.607Z,67.68
2018-12-24T14:23:43.907Z,67.64
2018-12-24T14:25:13.916Z,66.47
2018-12-24T14:26:43.883Z,65.35
2018-12-24T14:28:13.491Z,64.02
2018-12-24T14:29:45.512Z,65.03
2018-12-24T14:31:16.118Z,66.57
2018-12-24T14:32:46.445Z,65.55
2018-12-24T14:34:19.540Z,65.78
2018-12-24T14:35:49.399Z,66.45
2018-12-24T14:37:19.477Z,67.67
2018-12-24T14:38:49.803Z,67.01
2018-12-24T14:40:19.889Z,68.19
2018-12-24T14:41:49.858Z,68.47
2018-12-24T14:43:20.008Z,67.25
2018-12-24T14:52:00.655Z,69.50
2018-12-24T14:53:31.143Z,67.25
2018-12-24T14:55:01.022Z,68.33
2018-12-24T14:56:32.338Z,67.78
2018-12-24T14:58:02.463Z,68.31
2018-12-24T14:59:32.478Z,67.25
2018-12-24T15:01:02.417Z,66.34
2018-12-24T15:02:33.004Z,67.02
2018-12-24T15:04:03.728Z,68.54
2018-12-24T15:05:33.899Z,67.12
2018-12-24T15:07:03.847Z,67.82
2018-12-24T15:08:34.352Z,66.53
2018-12-24T15:10:04.348Z,67.14
2018-12-24T15:11:34.410Z,67.03
2018-12-24T15:13:04.583Z,67.53
2018-12-24T15:14:34.392Z,67.42
2018-12-24T15:16:05.733Z,67.33
2018-12-24T15:17:36.246Z,67.70
2018-12-24T15:19:06.308Z,68.00
2018-12-24T15:20:36.561Z,66.54
2018-12-24T15:22:06.253Z,67.41
2018-12-24T15:23:36.714Z,66.77
2018-12-24T15:25:07.654Z,67.82
2018-12-24T15:26:37.948Z,67.91
2018-12-24T15:28:08.952Z,68.28
2018-12-24T15:29:39.649Z,67.30
2018-12-24T15:31:09.462Z,67.49
2018-12-24T15:32:39.321Z,67.80
2018-12-24T15:34:09.677Z,67.20
2018-12-24T15:35:41.190Z,69.26
2018-12-24T15:44:00.849Z,70.15
2018-12-24T15:45:31.349Z,69.21
2018-12-24T15:47:01.240Z,69.59
2018-12-24T15:48:31.190Z,70.35
2018-12-24T15:50:01.124Z,71.17
2018-12-24T15:51:30.829Z,70.32
2018-12-24T15:53:00.843Z,70.82
2018-12-24T15:54:31.589Z,72.68
2018-12-24T15:56:01.441Z,72.91
2018-12-24T15:57:31.330Z,71.95
2018-12-24T15:59:01.818Z,71.78
2018-12-24T16:00:31.544Z,71.25
2018-12-24T16:02:01.877Z,71.20
2018-12-24T16:03:36.790Z,71.73
2018-12-24T16:05:03.989Z,70.91
2018-12-24T16:06:33.965Z,72.29
2018-12-24T16:08:03.803Z,71.67
2018-12-24T16:09:33.562Z,71.37
2018-12-24T16:11:03.363Z,71.12
2018-12-24T16:12:33.559Z,70.39
2018-12-24T16:14:03.808Z,70.75
2018-12-24T16:15:33.502Z,71.96
2018-12-24T16:17:04.101Z,71.98
2018-12-24T16:18:34.280Z,72.37
2018-12-24T16:20:04.567Z,73.65
2018-12-24T16:21:34.251Z,73.88
2018-12-24T16:23:04.303Z,74.03
2018-12-24T16:24:34.106Z,75.54
2018-12-24T16:26:04.106Z,73.84
2018-12-24T16:27:34.103Z,74.75
2018-12-24T16:29:04.069Z,75.40
2018-12-24T16:30:34.606Z,74.44
2018-12-24T16:32:04.653Z,75.31
2018-12-24T16:33:35.224Z,75.99
2018-12-24T16:35:05.012Z,76.47
2018-12-24T16:36:34.948Z,76.83
2018-12-24T16:38:05.059Z,76.83
2018-12-24T16:39:34.851Z,76.78
2018-12-24T16:41:04.482Z,76.79
2018-12-24T16:42:34.320Z,75.65
2018-12-24T16:44:04.316Z,75.68
2018-12-24T16:45:33.938Z,76.58
2018-12-24T16:47:03.616Z,76.60
2018-12-24T16:48:33.337Z,76.19
2018-12-24T16:50:04.207Z,75.51
2018-12-24T16:51:34.584Z,73.31
2018-12-24T16:53:04.965Z,72.83
2018-12-24T16:54:34.775Z,74.48
2018-12-24T16:56:04.280Z,72.69
2018-12-24T16:57:34.482Z,71.86
2018-12-24T16:59:04.375Z,72.73
2018-12-24T17:00:34.140Z,73.86
2018-12-24T17:02:03.766Z,73.57
2018-12-24T17:03:33.376Z,73.90
2018-12-24T17:05:03.367Z,73.83
2018-12-24T17:06:33.180Z,73.17
2018-12-24T17:08:02.791Z,72.80
2018-12-24T17:09:32.746Z,72.70
2018-12-24T17:11:02.373Z,73.50
2018-12-24T17:12:31.934Z,73.83
2018-12-24T17:14:01.626Z,73.42
2018-12-24T17:15:31.247Z,73.46
2018-12-24T17:17:07.751Z,73.69
2018-12-24T17:18:32.506Z,74.32
2018-12-24T17:20:02.328Z,73.77
2018-12-24T17:21:33.172Z,74.28
2018-12-24T17:23:02.713Z,75.54
2018-12-24T17:24:32.329Z,75.06
2018-12-24T17:26:01.926Z,75.74
2018-12-24T17:27:31.681Z,76.13
2018-12-24T17:29:01.315Z,76.92
2018-12-24T17:30:31.079Z,76.36
2018-12-24T17:32:00.714Z,76.40
2018-12-24T17:33:30.249Z,76.73
2018-12-24T17:35:00.020Z,77.09
2018-12-24T17:36:30.041Z,76.95
2018-12-24T17:37:59.803Z,77.08
2018-12-24T17:39:29.586Z,77.78
2018-12-24T17:40:59.403Z,77.92
2018-12-24T17:42:29.132Z,78.47
2018-12-24T17:43:58.630Z,78.61
2018-12-24T17:45:28.130Z,79.46
2018-12-24T17:46:58.138Z,79.27
2018-12-24T17:48:27.919Z,79.87
2018-12-24T17:49:57.432Z,79.60
2018-12-24T17:51:27.160Z,79.63
2018-12-24T17:52:56.656Z,79.85
2018-12-24T17:54:26.416Z,79.86
2018-12-24T17:55:55.967Z,80.45
2018-12-24T17:57:25.491Z,80.37
2018-12-24T17:58:55.036Z,80.38
2018-12-24T18:00:24.838Z,80.81
2018-12-24T18:01:54.362Z,81.12
2018-12-24T18:03:24.037Z,81.37
2018-12-24T18:04:53.743Z,81.91
2018-12-24T18:06:23.988Z,82.13
2018-12-24T18:07:53.802Z,81.85
2018-12-24T18:09:23.316Z,81.99
2018-12-24T18:10:52.833Z,82.09
2018-12-24T18:12:22.437Z,82.09
2018-12-24T18:13:52.208Z,81.97
2018-12-24T18:15:21.824Z,82.08
2018-12-24T18:16:51.875Z,82.04
2018-12-24T18:18:21.676Z,82.18
2018-12-24T18:19:51.255Z,81.29
2018-12-24T18:21:20.876Z,81.60
2018-12-24T18:22:50.415Z,82.02
2018-12-24T18:24:20.130Z,82.90
2018-12-24T18:25:49.652Z,83.12
2018-12-24T18:27:19.185Z,82.88
2018-12-24T18:28:49.053Z,82.98
2018-12-24T18:30:18.827Z,82.93
2018-12-24T18:31:48.607Z,83.45
2018-12-24T18:33:18.239Z,83.43
2018-12-24T18:34:48.145Z,83.48
2018-12-24T18:36:17.669Z,83.42
2018-12-24T18:37:47.233Z,83.47
2018-12-24T18:39:17.076Z,83.78
2018-12-24T18:40:46.577Z,83.71
2018-12-24T18:42:16.356Z,83.51
2018-12-24T18:43:45.985Z,83.73
2018-12-24T18:45:15.529Z,83.78
2018-12-24T18:46:45.028Z,83.83
2018-12-24T18:48:14.553Z,83.94
2018-12-24T18:49:44.051Z,84.09
2018-12-24T18:51:14.047Z,84.00
2018-12-24T18:52:43.539Z,83.54
2018-12-24T18:54:13.285Z,84.03
2018-12-24T18:55:43.029Z,84.25
2018-12-24T18:59:35.521Z,84.29
2018-12-24T19:01:05.483Z,84.30
2018-12-24T19:02:35.086Z,84.36
2018-12-24T19:04:04.591Z,84.99
2018-12-24T19:05:34.123Z,85.36
2018-12-24T19:07:03.643Z,85.38
2018-12-24T19:08:33.470Z,85.27
2018-12-24T19:10:04.180Z,85.47
2018-12-24T19:11:33.950Z,85.65
2018-12-24T19:13:03.856Z,85.63
2018-12-24T19:14:33.374Z,85.67
2018-12-24T19:16:03.665Z,85.74
2018-12-24T19:17:41.283Z,85.67
2018-12-24T19:19:04.707Z,85.40
2018-12-24T19:20:34.230Z,85.54
2018-12-24T19:22:03.884Z,86.07
2018-12-24T19:23:33.762Z,86.12
2018-12-24T19:25:03.476Z,86.19
2018-12-24T19:26:33.031Z,86.15
2018-12-24T19:28:02.933Z,86.42
2018-12-24T19:29:32.817Z,86.04
2018-12-24T19:31:02.463Z,85.97
2018-12-24T19:32:32.335Z,85.57
2018-12-24T19:34:01.872Z,85.74
2018-12-24T19:35:31.447Z,86.05
2018-12-24T19:37:01.762Z,86.39
2018-12-24T19:38:31.666Z,86.58
2018-12-24T19:40:01.696Z,86.73
2018-12-24T19:41:31.495Z,86.52
2018-12-24T19:43:01.030Z,86.66
2018-12-24T19:44:30.549Z,87.15
2018-12-24T19:46:00.229Z,87.13
2018-12-24T19:47:30.079Z,87.23
2018-12-24T19:48:59.722Z,87.14
2018-12-24T19:50:29.546Z,87.02
2018-12-24T19:51:59.083Z,87.05
2018-12-24T19:53:28.705Z,86.64
2018-12-24T19:54:58.506Z,86.57
2018-12-24T19:56:28.129Z,86.83
2018-12-24T19:57:57.644Z,86.84
2018-12-24T19:59:27.258Z,87.07
2018-12-24T20:00:56.800Z,87.43